sensor_id;sensor_type;location;lat;lon;timestamp;P1;durP1;ratioP1;P2;durP2;ratioP2
43042;SDS011;28667;50.758;6.096;2022-12-11T00:01:12;16.90;;;4.53;;
43042;SDS011;28667;50.758;6.096;2022-12-11T00:03:40;17.02;;;5.70;;
43042;SDS011;28667;50.758;6.096;2022-12-11T00:06:07;19.30;;;6.95;;
43042;SDS011;28667;50.758;6.096;2022-12-11T00:08:34;15.30;;;5.55;;
43042;SDS011;28667;50.758;6.096;2022-12-11T00:11:00;12.23;;;5.40;;
43042;SDS011;28667;50.758;6.096;2022-12-11T00:13:26;11.68;;;4.78;;
43042;SDS011;28667;50.758;6.096;2022-12-11T00:15:52;16.77;;;4.85;;
43042;SDS011;28667;50.758;6.096;2022-12-11T00:18:18;14.52;;;4.80;;
43042;SDS011;28667;50.758;6.096;2022-12-11T00:20:44;16.08;;;4.88;;
43042;SDS011;28667;50.758;6.096;2022-12-11T00:23:09;13.25;;;3.90;;
43042;SDS011;28667;50.758;6.096;2022-12-11T00:25:43;22.90;;;5.03;;
43042;SDS011;28667;50.758;6.096;2022-12-11T00:28:10;13.85;;;4.78;;
43042;SDS011;28667;50.758;6.096;2022-12-11T00:30:39;16.38;;;5.18;;
43042;SDS011;28667;50.758;6.096;2022-12-11T00:33:06;12.77;;;5.40;;
43042;SDS011;28667;50.758;6.096;2022-12-11T00:35:32;14.40;;;5.13;;
43042;SDS011;28667;50.758;6.096;2022-12-11T00:38:01;16.52;;;4.70;;
43042;SDS011;28667;50.758;6.096;2022-12-11T00:40:27;11.85;;;3.92;;
43042;SDS011;28667;50.758;6.096;2022-12-11T00:42:53;9.13;;;3.33;;
43042;SDS011;28667;50.758;6.096;2022-12-11T00:45:19;14.23;;;3.88;;
43042;SDS011;28667;50.758;6.096;2022-12-11T00:47:45;11.43;;;4.35;;
43042;SDS011;28667;50.758;6.096;2022-12-11T00:50:10;16.17;;;5.00;;
43042;SDS011;28667;50.758;6.096;2022-12-11T00:52:36;10.93;;;4.35;;
43042;SDS011;28667;50.758;6.096;2022-12-11T00:55:03;12.48;;;4.47;;
43042;SDS011;28667;50.758;6.096;2022-12-11T00:57:29;13.65;;;5.57;;
43042;SDS011;28667;50.758;6.096;2022-12-11T00:59:54;13.23;;;4.35;;
43042;SDS011;28667;50.758;6.096;2022-12-11T01:02:20;11.13;;;4.78;;
43042;SDS011;28667;50.758;6.096;2022-12-11T01:04:46;13.80;;;4.88;;
43042;SDS011;28667;50.758;6.096;2022-12-11T01:07:11;14.75;;;4.60;;
43042;SDS011;28667;50.758;6.096;2022-12-11T01:09:37;9.65;;;4.63;;
43042;SDS011;28667;50.758;6.096;2022-12-11T01:12:21;14.75;;;5.13;;
43042;SDS011;28667;50.758;6.096;2022-12-11T01:14:47;12.48;;;4.38;;
43042;SDS011;28667;50.758;6.096;2022-12-11T01:17:13;12.30;;;5.07;;
43042;SDS011;28667;50.758;6.096;2022-12-11T01:19:38;16.23;;;5.43;;
43042;SDS011;28667;50.758;6.096;2022-12-11T01:22:04;14.40;;;4.82;;
43042;SDS011;28667;50.758;6.096;2022-12-11T01:24:30;18.67;;;5.18;;
43042;SDS011;28667;50.758;6.096;2022-12-11T01:26:57;13.48;;;5.32;;
43042;SDS011;28667;50.758;6.096;2022-12-11T01:29:22;20.35;;;6.35;;
43042;SDS011;28667;50.758;6.096;2022-12-11T01:31:48;15.65;;;5.93;;
43042;SDS011;28667;50.758;6.096;2022-12-11T01:34:14;18.80;;;5.47;;
43042;SDS011;28667;50.758;6.096;2022-12-11T01:36:39;11.25;;;4.47;;
43042;SDS011;28667;50.758;6.096;2022-12-11T01:39:05;16.40;;;6.63;;
43042;SDS011;28667;50.758;6.096;2022-12-11T01:41:31;23.40;;;6.15;;
43042;SDS011;28667;50.758;6.096;2022-12-11T01:46:25;15.38;;;5.03;;
43042;SDS011;28667;50.758;6.096;2022-12-11T01:48:52;16.20;;;5.13;;
43042;SDS011;28667;50.758;6.096;2022-12-11T01:51:18;14.82;;;5.28;;
43042;SDS011;28667;50.758;6.096;2022-12-11T01:53:47;12.07;;;4.68;;
43042;SDS011;28667;50.758;6.096;2022-12-11T01:56:20;11.88;;;4.75;;
43042;SDS011;28667;50.758;6.096;2022-12-11T01:58:51;12.85;;;4.85;;
43042;SDS011;28667;50.758;6.096;2022-12-11T02:01:24;14.35;;;4.43;;
43042;SDS011;28667;50.758;6.096;2022-12-11T02:03:56;15.70;;;4.57;;
43042;SDS011;28667;50.758;6.096;2022-12-11T02:06:41;11.10;;;4.40;;
43042;SDS011;28667;50.758;6.096;2022-12-11T02:09:30;19.83;;;4.22;;
43042;SDS011;28667;50.758;6.096;2022-12-11T02:14:37;9.45;;;3.75;;
43042;SDS011;28667;50.758;6.096;2022-12-11T02:28:19;12.07;;;4.00;;
43042;SDS011;28667;50.758;6.096;2022-12-11T02:31:03;9.73;;;3.83;;
43042;SDS011;28667;50.758;6.096;2022-12-11T02:33:54;18.38;;;3.72;;
43042;SDS011;28667;50.758;6.096;2022-12-11T02:36:27;11.43;;;4.35;;
43042;SDS011;28667;50.758;6.096;2022-12-11T02:39:03;7.07;;;2.97;;
43042;SDS011;28667;50.758;6.096;2022-12-11T02:41:31;11.48;;;3.60;;
43042;SDS011;28667;50.758;6.096;2022-12-11T02:43:58;13.38;;;4.07;;
43042;SDS011;28667;50.758;6.096;2022-12-11T02:46:26;10.80;;;4.50;;
43042;SDS011;28667;50.758;6.096;2022-12-11T02:48:53;12.40;;;3.80;;
43042;SDS011;28667;50.758;6.096;2022-12-11T02:51:25;7.28;;;3.55;;
43042;SDS011;28667;50.758;6.096;2022-12-11T02:53:55;12.60;;;4.80;;
43042;SDS011;28667;50.758;6.096;2022-12-11T02:56:24;14.43;;;4.35;;
43042;SDS011;28667;50.758;6.096;2022-12-11T02:58:56;13.05;;;4.47;;
43042;SDS011;28667;50.758;6.096;2022-12-11T03:01:26;11.60;;;5.20;;
43042;SDS011;28667;50.758;6.096;2022-12-11T03:03:53;8.23;;;4.18;;
43042;SDS011;28667;50.758;6.096;2022-12-11T03:06:20;12.25;;;4.93;;
43042;SDS011;28667;50.758;6.096;2022-12-11T03:08:50;13.35;;;4.38;;
43042;SDS011;28667;50.758;6.096;2022-12-11T03:11:19;10.23;;;3.97;;
43042;SDS011;28667;50.758;6.096;2022-12-11T03:13:44;14.15;;;4.90;;
43042;SDS011;28667;50.758;6.096;2022-12-11T03:21:52;11.23;;;4.53;;
43042;SDS011;28667;50.758;6.096;2022-12-11T03:24:40;13.07;;;4.07;;
43042;SDS011;28667;50.758;6.096;2022-12-11T03:27:18;8.65;;;3.83;;
43042;SDS011;28667;50.758;6.096;2022-12-11T03:30:19;10.70;;;3.35;;
43042;SDS011;28667;50.758;6.096;2022-12-11T03:32:50;12.73;;;5.28;;
43042;SDS011;28667;50.758;6.096;2022-12-11T03:37:59;13.30;;;5.13;;
43042;SDS011;28667;50.758;6.096;2022-12-11T03:40:29;17.52;;;5.18;;
43042;SDS011;28667;50.758;6.096;2022-12-11T03:42:58;14.73;;;5.82;;
43042;SDS011;28667;50.758;6.096;2022-12-11T03:45:24;11.85;;;4.57;;
43042;SDS011;28667;50.758;6.096;2022-12-11T03:47:54;10.60;;;4.07;;
43042;SDS011;28667;50.758;6.096;2022-12-11T03:50:22;12.63;;;4.20;;
43042;SDS011;28667;50.758;6.096;2022-12-11T03:52:50;10.82;;;4.53;;
43042;SDS011;28667;50.758;6.096;2022-12-11T03:55:18;12.88;;;3.83;;
43042;SDS011;28667;50.758;6.096;2022-12-11T03:57:46;16.63;;;5.03;;
43042;SDS011;28667;50.758;6.096;2022-12-11T04:00:13;16.30;;;4.43;;
43042;SDS011;28667;50.758;6.096;2022-12-11T04:02:41;14.45;;;5.88;;
43042;SDS011;28667;50.758;6.096;2022-12-11T04:05:08;12.35;;;5.20;;
43042;SDS011;28667;50.758;6.096;2022-12-11T04:07:34;14.05;;;5.07;;
43042;SDS011;28667;50.758;6.096;2022-12-11T04:10:00;14.13;;;5.03;;
43042;SDS011;28667;50.758;6.096;2022-12-11T04:12:27;16.05;;;6.07;;
43042;SDS011;28667;50.758;6.096;2022-12-11T04:14:52;10.80;;;3.72;;
43042;SDS011;28667;50.758;6.096;2022-12-11T04:17:36;16.48;;;5.28;;
43042;SDS011;28667;50.758;6.096;2022-12-11T04:20:20;11.50;;;4.30;;
43042;SDS011;28667;50.758;6.096;2022-12-11T04:23:05;15.75;;;5.78;;
43042;SDS011;28667;50.758;6.096;2022-12-11T04:25:54;14.38;;;4.93;;
43042;SDS011;28667;50.758;6.096;2022-12-11T04:28:27;15.93;;;5.85;;
43042;SDS011;28667;50.758;6.096;2022-12-11T04:30:53;10.38;;;4.68;;
43042;SDS011;28667;50.758;6.096;2022-12-11T04:33:18;11.70;;;4.90;;
43042;SDS011;28667;50.758;6.096;2022-12-11T04:35:44;11.02;;;4.53;;
43042;SDS011;28667;50.758;6.096;2022-12-11T04:38:10;10.55;;;4.53;;
43042;SDS011;28667;50.758;6.096;2022-12-11T04:40:35;8.50;;;4.53;;
43042;SDS011;28667;50.758;6.096;2022-12-11T04:43:01;12.02;;;4.82;;
43042;SDS011;28667;50.758;6.096;2022-12-11T04:45:27;12.50;;;4.15;;
43042;SDS011;28667;50.758;6.096;2022-12-11T04:47:52;8.23;;;4.00;;
43042;SDS011;28667;50.758;6.096;2022-12-11T04:50:18;13.23;;;5.25;;
43042;SDS011;28667;50.758;6.096;2022-12-11T04:52:44;9.85;;;5.10;;
43042;SDS011;28667;50.758;6.096;2022-12-11T04:55:10;17.45;;;4.85;;
43042;SDS011;28667;50.758;6.096;2022-12-11T04:57:36;11.20;;;4.72;;
43042;SDS011;28667;50.758;6.096;2022-12-11T05:00:04;7.63;;;4.22;;
43042;SDS011;28667;50.758;6.096;2022-12-11T05:02:35;8.93;;;3.83;;
43042;SDS011;28667;50.758;6.096;2022-12-11T05:05:05;9.88;;;3.95;;
43042;SDS011;28667;50.758;6.096;2022-12-11T05:07:34;9.68;;;4.30;;
43042;SDS011;28667;50.758;6.096;2022-12-11T05:10:00;13.98;;;4.97;;
43042;SDS011;28667;50.758;6.096;2022-12-11T05:12:26;12.55;;;4.00;;
43042;SDS011;28667;50.758;6.096;2022-12-11T05:14:52;10.20;;;3.85;;
43042;SDS011;28667;50.758;6.096;2022-12-11T05:17:19;8.07;;;3.25;;
43042;SDS011;28667;50.758;6.096;2022-12-11T05:19:49;15.40;;;4.25;;
43042;SDS011;28667;50.758;6.096;2022-12-11T05:22:16;11.80;;;4.18;;
43042;SDS011;28667;50.758;6.096;2022-12-11T05:24:43;8.07;;;3.55;;
43042;SDS011;28667;50.758;6.096;2022-12-11T05:27:09;6.30;;;2.95;;
43042;SDS011;28667;50.758;6.096;2022-12-11T05:29:35;7.07;;;2.92;;
43042;SDS011;28667;50.758;6.096;2022-12-11T05:32:01;4.95;;;3.15;;
43042;SDS011;28667;50.758;6.096;2022-12-11T05:34:27;11.35;;;4.22;;
43042;SDS011;28667;50.758;6.096;2022-12-11T05:36:52;9.70;;;3.65;;
43042;SDS011;28667;50.758;6.096;2022-12-11T05:39:18;7.60;;;3.65;;
43042;SDS011;28667;50.758;6.096;2022-12-11T05:41:44;8.15;;;3.58;;
43042;SDS011;28667;50.758;6.096;2022-12-11T05:44:10;11.23;;;3.58;;
43042;SDS011;28667;50.758;6.096;2022-12-11T05:46:37;9.70;;;3.55;;
43042;SDS011;28667;50.758;6.096;2022-12-11T05:49:04;8.70;;;3.55;;
43042;SDS011;28667;50.758;6.096;2022-12-11T05:51:30;11.93;;;3.83;;
43042;SDS011;28667;50.758;6.096;2022-12-11T05:53:58;9.10;;;3.83;;
43042;SDS011;28667;50.758;6.096;2022-12-11T05:56:28;11.55;;;4.45;;
43042;SDS011;28667;50.758;6.096;2022-12-11T05:58:55;12.77;;;3.83;;
43042;SDS011;28667;50.758;6.096;2022-12-11T06:01:23;10.27;;;3.90;;
43042;SDS011;28667;50.758;6.096;2022-12-11T06:03:54;10.32;;;3.72;;
43042;SDS011;28667;50.758;6.096;2022-12-11T06:06:20;9.52;;;4.07;;
43042;SDS011;28667;50.758;6.096;2022-12-11T06:08:50;10.57;;;4.03;;
43042;SDS011;28667;50.758;6.096;2022-12-11T06:11:17;7.38;;;2.83;;
43042;SDS011;28667;50.758;6.096;2022-12-11T06:13:43;11.30;;;3.60;;
43042;SDS011;28667;50.758;6.096;2022-12-11T06:16:09;12.68;;;3.63;;
43042;SDS011;28667;50.758;6.096;2022-12-11T06:18:38;17.42;;;3.90;;
43042;SDS011;28667;50.758;6.096;2022-12-11T06:21:19;9.15;;;3.40;;
43042;SDS011;28667;50.758;6.096;2022-12-11T06:23:47;9.43;;;3.90;;
43042;SDS011;28667;50.758;6.096;2022-12-11T06:26:14;7.32;;;3.20;;
43042;SDS011;28667;50.758;6.096;2022-12-11T06:28:40;5.07;;;3.05;;
43042;SDS011;28667;50.758;6.096;2022-12-11T06:31:06;8.35;;;2.90;;
43042;SDS011;28667;50.758;6.096;2022-12-11T06:33:32;6.90;;;3.50;;
43042;SDS011;28667;50.758;6.096;2022-12-11T06:36:05;8.55;;;3.00;;
43042;SDS011;28667;50.758;6.096;2022-12-11T06:41:00;6.32;;;2.95;;
43042;SDS011;28667;50.758;6.096;2022-12-11T06:43:29;7.05;;;3.05;;
43042;SDS011;28667;50.758;6.096;2022-12-11T06:46:02;6.63;;;3.05;;
43042;SDS011;28667;50.758;6.096;2022-12-11T06:48:31;10.48;;;3.88;;
43042;SDS011;28667;50.758;6.096;2022-12-11T06:50:57;8.30;;;3.50;;
43042;SDS011;28667;50.758;6.096;2022-12-11T06:53:23;5.93;;;2.65;;
43042;SDS011;28667;50.758;6.096;2022-12-11T06:55:49;6.80;;;3.22;;
43042;SDS011;28667;50.758;6.096;2022-12-11T06:58:14;10.80;;;3.95;;
43042;SDS011;28667;50.758;6.096;2022-12-11T07:00:40;10.93;;;4.13;;
43042;SDS011;28667;50.758;6.096;2022-12-11T07:03:06;10.10;;;3.75;;
43042;SDS011;28667;50.758;6.096;2022-12-11T07:05:32;12.80;;;4.47;;
43042;SDS011;28667;50.758;6.096;2022-12-11T07:07:58;10.05;;;4.30;;
43042;SDS011;28667;50.758;6.096;2022-12-11T07:10:24;9.38;;;4.10;;
43042;SDS011;28667;50.758;6.096;2022-12-11T07:12:53;8.52;;;3.88;;
43042;SDS011;28667;50.758;6.096;2022-12-11T07:15:19;8.73;;;4.32;;
43042;SDS011;28667;50.758;6.096;2022-12-11T07:17:45;9.55;;;3.90;;
43042;SDS011;28667;50.758;6.096;2022-12-11T07:20:11;10.57;;;4.22;;
43042;SDS011;28667;50.758;6.096;2022-12-11T07:22:37;13.70;;;2.97;;
43042;SDS011;28667;50.758;6.096;2022-12-11T07:25:02;8.25;;;3.95;;
43042;SDS011;28667;50.758;6.096;2022-12-11T07:27:28;8.13;;;3.97;;
43042;SDS011;28667;50.758;6.096;2022-12-11T07:29:54;10.20;;;3.72;;
43042;SDS011;28667;50.758;6.096;2022-12-11T07:32:20;9.95;;;3.22;;
43042;SDS011;28667;50.758;6.096;2022-12-11T07:34:49;8.55;;;3.83;;
43042;SDS011;28667;50.758;6.096;2022-12-11T07:37:15;16.48;;;5.25;;
43042;SDS011;28667;50.758;6.096;2022-12-11T07:39:41;9.63;;;3.67;;
43042;SDS011;28667;50.758;6.096;2022-12-11T07:42:07;10.90;;;3.97;;
43042;SDS011;28667;50.758;6.096;2022-12-11T07:44:32;11.48;;;4.55;;
43042;SDS011;28667;50.758;6.096;2022-12-11T07:46:58;5.43;;;2.90;;
43042;SDS011;28667;50.758;6.096;2022-12-11T07:49:23;10.43;;;3.80;;
43042;SDS011;28667;50.758;6.096;2022-12-11T07:51:49;10.30;;;4.00;;
43042;SDS011;28667;50.758;6.096;2022-12-11T07:54:16;7.03;;;3.20;;
43042;SDS011;28667;50.758;6.096;2022-12-11T07:56:42;6.70;;;3.30;;
43042;SDS011;28667;50.758;6.096;2022-12-11T07:59:10;9.70;;;3.47;;
43042;SDS011;28667;50.758;6.096;2022-12-11T08:01:36;4.30;;;2.90;;
43042;SDS011;28667;50.758;6.096;2022-12-11T08:04:04;10.02;;;3.65;;
43042;SDS011;28667;50.758;6.096;2022-12-11T08:06:33;9.02;;;4.13;;
43042;SDS011;28667;50.758;6.096;2022-12-11T08:09:00;8.35;;;3.65;;
43042;SDS011;28667;50.758;6.096;2022-12-11T08:11:29;6.78;;;3.35;;
43042;SDS011;28667;50.758;6.096;2022-12-11T08:13:54;10.15;;;3.63;;
43042;SDS011;28667;50.758;6.096;2022-12-11T08:16:20;9.27;;;3.47;;
43042;SDS011;28667;50.758;6.096;2022-12-11T08:18:46;8.98;;;3.42;;
43042;SDS011;28667;50.758;6.096;2022-12-11T08:23:46;7.00;;;2.83;;
43042;SDS011;28667;50.758;6.096;2022-12-11T08:26:16;7.43;;;3.17;;
43042;SDS011;28667;50.758;6.096;2022-12-11T08:28:50;9.77;;;3.13;;
43042;SDS011;28667;50.758;6.096;2022-12-11T08:31:16;9.73;;;3.50;;
43042;SDS011;28667;50.758;6.096;2022-12-11T08:33:42;6.30;;;3.05;;
43042;SDS011;28667;50.758;6.096;2022-12-11T08:36:10;8.77;;;3.80;;
43042;SDS011;28667;50.758;6.096;2022-12-11T08:38:38;7.47;;;2.53;;
43042;SDS011;28667;50.758;6.096;2022-12-11T08:41:08;8.40;;;3.28;;
43042;SDS011;28667;50.758;6.096;2022-12-11T08:43:38;6.07;;;3.33;;
43042;SDS011;28667;50.758;6.096;2022-12-11T08:46:04;7.25;;;3.42;;
43042;SDS011;28667;50.758;6.096;2022-12-11T08:48:31;13.52;;;4.05;;
43042;SDS011;28667;50.758;6.096;2022-12-11T08:50:59;6.82;;;3.00;;
43042;SDS011;28667;50.758;6.096;2022-12-11T08:53:30;5.88;;;2.38;;
43042;SDS011;28667;50.758;6.096;2022-12-11T08:56:06;7.78;;;3.60;;
43042;SDS011;28667;50.758;6.096;2022-12-11T08:58:36;6.80;;;2.67;;
43042;SDS011;28667;50.758;6.096;2022-12-11T09:01:10;13.68;;;4.00;;
43042;SDS011;28667;50.758;6.096;2022-12-11T09:03:40;5.60;;;2.90;;
43042;SDS011;28667;50.758;6.096;2022-12-11T09:06:07;9.13;;;2.80;;
43042;SDS011;28667;50.758;6.096;2022-12-11T09:08:35;4.65;;;2.63;;
43042;SDS011;28667;50.758;6.096;2022-12-11T09:11:02;7.18;;;2.90;;
43042;SDS011;28667;50.758;6.096;2022-12-11T09:13:31;6.28;;;3.47;;
43042;SDS011;28667;50.758;6.096;2022-12-11T09:15:57;6.13;;;2.75;;
43042;SDS011;28667;50.758;6.096;2022-12-11T09:18:23;7.63;;;3.88;;
43042;SDS011;28667;50.758;6.096;2022-12-11T09:20:56;6.53;;;3.05;;
43042;SDS011;28667;50.758;6.096;2022-12-11T09:23:26;9.18;;;3.85;;
43042;SDS011;28667;50.758;6.096;2022-12-11T09:25:52;7.47;;;3.17;;
43042;SDS011;28667;50.758;6.096;2022-12-11T09:28:17;9.27;;;3.08;;
43042;SDS011;28667;50.758;6.096;2022-12-11T09:30:44;8.70;;;3.25;;
43042;SDS011;28667;50.758;6.096;2022-12-11T09:33:09;10.95;;;4.28;;
43042;SDS011;28667;50.758;6.096;2022-12-11T09:35:35;9.38;;;3.42;;
43042;SDS011;28667;50.758;6.096;2022-12-11T09:38:01;7.35;;;3.55;;
43042;SDS011;28667;50.758;6.096;2022-12-11T09:40:27;8.38;;;3.83;;
43042;SDS011;28667;50.758;6.096;2022-12-11T09:42:56;9.27;;;3.60;;
43042;SDS011;28667;50.758;6.096;2022-12-11T09:45:29;7.07;;;3.13;;
43042;SDS011;28667;50.758;6.096;2022-12-11T09:47:55;6.35;;;2.97;;
43042;SDS011;28667;50.758;6.096;2022-12-11T09:50:22;12.13;;;4.53;;
43042;SDS011;28667;50.758;6.096;2022-12-11T09:53:12;7.63;;;3.35;;
43042;SDS011;28667;50.758;6.096;2022-12-11T10:18:17;6.20;;;3.40;;
43042;SDS011;28667;50.758;6.096;2022-12-11T10:20:48;10.85;;;4.03;;
43042;SDS011;28667;50.758;6.096;2022-12-11T10:23:19;6.30;;;2.95;;
43042;SDS011;28667;50.758;6.096;2022-12-11T10:26:09;6.22;;;2.72;;
43042;SDS011;28667;50.758;6.096;2022-12-11T10:28:43;4.55;;;2.72;;
43042;SDS011;28667;50.758;6.096;2022-12-11T10:31:16;9.18;;;3.83;;
43042;SDS011;28667;50.758;6.096;2022-12-11T10:33:59;11.90;;;4.50;;
43042;SDS011;28667;50.758;6.096;2022-12-11T10:36:27;10.02;;;3.83;;
43042;SDS011;28667;50.758;6.096;2022-12-11T10:38:59;9.43;;;4.13;;
43042;SDS011;28667;50.758;6.096;2022-12-11T10:41:36;6.05;;;3.47;;
43042;SDS011;28667;50.758;6.096;2022-12-11T10:44:20;9.73;;;3.55;;
43042;SDS011;28667;50.758;6.096;2022-12-11T10:49:37;7.93;;;3.50;;
43042;SDS011;28667;50.758;6.096;2022-12-11T10:52:11;11.68;;;3.40;;
43042;SDS011;28667;50.758;6.096;2022-12-11T10:54:44;12.30;;;4.03;;
43042;SDS011;28667;50.758;6.096;2022-12-11T10:57:24;9.32;;;3.72;;
43042;SDS011;28667;50.758;6.096;2022-12-11T10:59:56;6.43;;;3.67;;
43042;SDS011;28667;50.758;6.096;2022-12-11T11:02:41;8.50;;;3.40;;
43042;SDS011;28667;50.758;6.096;2022-12-11T11:05:14;7.55;;;3.15;;
43042;SDS011;28667;50.758;6.096;2022-12-11T11:07:50;6.55;;;3.05;;
43042;SDS011;28667;50.758;6.096;2022-12-11T11:10:35;10.77;;;3.63;;
43042;SDS011;28667;50.758;6.096;2022-12-11T11:13:01;9.85;;;3.85;;
43042;SDS011;28667;50.758;6.096;2022-12-11T11:15:28;9.27;;;4.15;;
43042;SDS011;28667;50.758;6.096;2022-12-11T11:17:55;9.68;;;4.85;;
43042;SDS011;28667;50.758;6.096;2022-12-11T11:20:29;7.30;;;3.72;;
43042;SDS011;28667;50.758;6.096;2022-12-11T11:23:02;7.57;;;3.20;;
43042;SDS011;28667;50.758;6.096;2022-12-11T11:25:33;6.80;;;3.47;;
43042;SDS011;28667;50.758;6.096;2022-12-11T11:28:00;8.50;;;3.63;;
43042;SDS011;28667;50.758;6.096;2022-12-11T11:30:34;8.48;;;3.20;;
43042;SDS011;28667;50.758;6.096;2022-12-11T11:33:04;8.38;;;4.10;;
43042;SDS011;28667;50.758;6.096;2022-12-11T11:35:52;8.10;;;4.15;;
43042;SDS011;28667;50.758;6.096;2022-12-11T11:41:28;4.10;;;2.95;;
43042;SDS011;28667;50.758;6.096;2022-12-11T11:44:02;5.55;;;3.05;;
43042;SDS011;28667;50.758;6.096;2022-12-11T11:46:38;5.65;;;2.85;;
43042;SDS011;28667;50.758;6.096;2022-12-11T11:51:50;7.72;;;2.47;;
43042;SDS011;28667;50.758;6.096;2022-12-11T11:57:39;6.63;;;3.30;;
43042;SDS011;28667;50.758;6.096;2022-12-11T12:00:17;8.48;;;3.95;;
43042;SDS011;28667;50.758;6.096;2022-12-11T12:02:48;7.10;;;2.72;;
43042;SDS011;28667;50.758;6.096;2022-12-11T12:05:27;9.35;;;3.35;;
43042;SDS011;28667;50.758;6.096;2022-12-11T12:20:27;8.43;;;3.45;;
43042;SDS011;28667;50.758;6.096;2022-12-11T12:23:04;11.38;;;4.72;;
43042;SDS011;28667;50.758;6.096;2022-12-11T12:31:08;6.20;;;3.28;;
43042;SDS011;28667;50.758;6.096;2022-12-11T12:34:04;9.35;;;2.97;;
43042;SDS011;28667;50.758;6.096;2022-12-11T12:44:30;8.65;;;3.22;;
43042;SDS011;28667;50.758;6.096;2022-12-11T12:47:09;9.43;;;3.50;;
43042;SDS011;28667;50.758;6.096;2022-12-11T12:49:39;9.00;;;2.83;;
43042;SDS011;28667;50.758;6.096;2022-12-11T12:52:12;5.95;;;2.67;;
43042;SDS011;28667;50.758;6.096;2022-12-11T12:54:57;7.80;;;3.50;;
43042;SDS011;28667;50.758;6.096;2022-12-11T13:00:30;8.77;;;3.60;;
43042;SDS011;28667;50.758;6.096;2022-12-11T13:02:56;7.55;;;3.80;;
43042;SDS011;28667;50.758;6.096;2022-12-11T13:05:26;8.65;;;3.65;;
43042;SDS011;28667;50.758;6.096;2022-12-11T13:07:57;12.50;;;3.65;;
43042;SDS011;28667;50.758;6.096;2022-12-11T13:10:32;10.15;;;3.85;;
43042;SDS011;28667;50.758;6.096;2022-12-11T13:13:01;6.13;;;3.20;;
43042;SDS011;28667;50.758;6.096;2022-12-11T13:15:38;6.18;;;3.30;;
43042;SDS011;28667;50.758;6.096;2022-12-11T13:21:03;9.93;;;4.53;;
43042;SDS011;28667;50.758;6.096;2022-12-11T13:24:13;9.15;;;4.20;;
43042;SDS011;28667;50.758;6.096;2022-12-11T13:26:45;7.63;;;3.83;;
43042;SDS011;28667;50.758;6.096;2022-12-11T13:32:18;10.02;;;3.75;;
43042;SDS011;28667;50.758;6.096;2022-12-11T13:34:51;6.60;;;3.53;;
43042;SDS011;28667;50.758;6.096;2022-12-11T13:37:25;8.13;;;3.50;;
43042;SDS011;28667;50.758;6.096;2022-12-11T13:39:58;10.00;;;3.00;;
43042;SDS011;28667;50.758;6.096;2022-12-11T13:44:57;7.57;;;3.83;;
43042;SDS011;28667;50.758;6.096;2022-12-11T13:47:24;6.80;;;3.90;;
43042;SDS011;28667;50.758;6.096;2022-12-11T13:50:10;12.05;;;3.67;;
43042;SDS011;28667;50.758;6.096;2022-12-11T13:52:56;8.05;;;3.50;;
43042;SDS011;28667;50.758;6.096;2022-12-11T13:55:25;5.88;;;3.40;;
43042;SDS011;28667;50.758;6.096;2022-12-11T13:57:58;7.03;;;3.35;;
43042;SDS011;28667;50.758;6.096;2022-12-11T14:00:26;7.13;;;2.88;;
43042;SDS011;28667;50.758;6.096;2022-12-11T14:02:57;14.20;;;4.13;;
43042;SDS011;28667;50.758;6.096;2022-12-11T14:05:32;9.55;;;3.20;;
43042;SDS011;28667;50.758;6.096;2022-12-11T14:08:00;9.82;;;3.22;;
43042;SDS011;28667;50.758;6.096;2022-12-11T14:10:33;4.97;;;2.75;;
43042;SDS011;28667;50.758;6.096;2022-12-11T14:13:00;8.02;;;3.13;;
43042;SDS011;28667;50.758;6.096;2022-12-11T14:15:31;10.05;;;3.90;;
43042;SDS011;28667;50.758;6.096;2022-12-11T14:17:57;7.20;;;2.75;;
43042;SDS011;28667;50.758;6.096;2022-12-11T14:20:26;4.03;;;2.55;;
43042;SDS011;28667;50.758;6.096;2022-12-11T14:28:35;9.07;;;3.65;;
43042;SDS011;28667;50.758;6.096;2022-12-11T14:31:02;6.28;;;2.95;;
43042;SDS011;28667;50.758;6.096;2022-12-11T14:33:31;6.70;;;2.97;;
43042;SDS011;28667;50.758;6.096;2022-12-11T14:36:00;8.55;;;3.85;;
43042;SDS011;28667;50.758;6.096;2022-12-11T14:38:29;8.13;;;3.60;;
43042;SDS011;28667;50.758;6.096;2022-12-11T14:41:01;9.68;;;3.70;;
43042;SDS011;28667;50.758;6.096;2022-12-11T14:43:52;6.60;;;3.55;;
43042;SDS011;28667;50.758;6.096;2022-12-11T14:46:32;9.18;;;3.38;;
43042;SDS011;28667;50.758;6.096;2022-12-11T14:52:10;8.10;;;3.65;;
43042;SDS011;28667;50.758;6.096;2022-12-11T14:54:42;6.13;;;3.10;;
43042;SDS011;28667;50.758;6.096;2022-12-11T14:57:20;7.55;;;3.47;;
43042;SDS011;28667;50.758;6.096;2022-12-11T14:59:49;7.00;;;3.33;;
43042;SDS011;28667;50.758;6.096;2022-12-11T15:05:01;5.50;;;3.63;;
43042;SDS011;28667;50.758;6.096;2022-12-11T15:07:31;6.80;;;3.42;;
43042;SDS011;28667;50.758;6.096;2022-12-11T15:09:58;7.43;;;3.67;;
43042;SDS011;28667;50.758;6.096;2022-12-11T15:12:24;8.32;;;3.85;;
43042;SDS011;28667;50.758;6.096;2022-12-11T15:14:51;9.80;;;3.53;;
43042;SDS011;28667;50.758;6.096;2022-12-11T15:17:44;10.57;;;3.97;;
43042;SDS011;28667;50.758;6.096;2022-12-11T15:20:19;7.45;;;3.10;;
43042;SDS011;28667;50.758;6.096;2022-12-11T15:22:47;6.38;;;3.25;;
43042;SDS011;28667;50.758;6.096;2022-12-11T15:25:17;9.43;;;3.38;;
43042;SDS011;28667;50.758;6.096;2022-12-11T15:27:48;10.82;;;3.10;;
43042;SDS011;28667;50.758;6.096;2022-12-11T15:32:43;8.80;;;2.70;;
43042;SDS011;28667;50.758;6.096;2022-12-11T15:35:22;8.57;;;4.25;;
43042;SDS011;28667;50.758;6.096;2022-12-11T15:37:51;10.52;;;4.10;;
43042;SDS011;28667;50.758;6.096;2022-12-11T15:40:18;8.75;;;4.50;;
43042;SDS011;28667;50.758;6.096;2022-12-11T15:42:44;7.32;;;3.58;;
43042;SDS011;28667;50.758;6.096;2022-12-11T15:45:17;10.18;;;3.75;;
43042;SDS011;28667;50.758;6.096;2022-12-11T15:47:46;13.95;;;4.07;;
43042;SDS011;28667;50.758;6.096;2022-12-11T15:50:16;9.25;;;4.05;;
43042;SDS011;28667;50.758;6.096;2022-12-11T15:52:45;10.02;;;4.22;;
43042;SDS011;28667;50.758;6.096;2022-12-11T15:55:11;9.13;;;4.32;;
43042;SDS011;28667;50.758;6.096;2022-12-11T15:57:38;10.07;;;4.03;;
43042;SDS011;28667;50.758;6.096;2022-12-11T16:00:12;8.93;;;3.95;;
43042;SDS011;28667;50.758;6.096;2022-12-11T16:02:39;6.47;;;3.55;;
43042;SDS011;28667;50.758;6.096;2022-12-11T16:05:04;7.82;;;3.53;;
43042;SDS011;28667;50.758;6.096;2022-12-11T16:07:30;11.02;;;5.75;;
43042;SDS011;28667;50.758;6.096;2022-12-11T16:09:57;12.38;;;4.53;;
43042;SDS011;28667;50.758;6.096;2022-12-11T16:12:23;11.38;;;5.45;;
43042;SDS011;28667;50.758;6.096;2022-12-11T16:14:48;11.20;;;4.18;;
43042;SDS011;28667;50.758;6.096;2022-12-11T16:17:14;13.57;;;5.20;;
43042;SDS011;28667;50.758;6.096;2022-12-11T16:19:40;10.90;;;5.15;;
43042;SDS011;28667;50.758;6.096;2022-12-11T16:22:07;6.45;;;3.35;;
43042;SDS011;28667;50.758;6.096;2022-12-11T16:24:34;10.90;;;4.82;;
43042;SDS011;28667;50.758;6.096;2022-12-11T16:27:01;8.93;;;4.75;;
43042;SDS011;28667;50.758;6.096;2022-12-11T16:29:27;10.18;;;3.88;;
43042;SDS011;28667;50.758;6.096;2022-12-11T16:31:53;8.82;;;4.35;;
43042;SDS011;28667;50.758;6.096;2022-12-11T16:34:26;6.32;;;3.88;;
43042;SDS011;28667;50.758;6.096;2022-12-11T16:36:52;7.47;;;4.22;;
43042;SDS011;28667;50.758;6.096;2022-12-11T16:39:20;14.55;;;5.68;;
43042;SDS011;28667;50.758;6.096;2022-12-11T16:41:46;17.42;;;5.38;;
43042;SDS011;28667;50.758;6.096;2022-12-11T16:44:12;9.93;;;5.03;;
43042;SDS011;28667;50.758;6.096;2022-12-11T16:46:38;8.00;;;4.30;;
43042;SDS011;28667;50.758;6.096;2022-12-11T16:49:04;18.80;;;6.15;;
43042;SDS011;28667;50.758;6.096;2022-12-11T16:51:29;11.02;;;4.93;;